Terminal Aerodrome Forecast
Issued by NWS

Home | Current Version | Previous Version | Text Only | Print | Product List | Glossary On
Versions: 1 2 3 4 5 6 7 8 9 10 11 12 13 14 15 16 17 18 19
000
FTUS41 KBTV 241721
TAFSLK
TAF
KSLK 241721Z 2418/2518 30008KT P6SM BKN050
     FM242100 31009KT P6SM SCT050
     FM250100 VRB03KT P6SM SKC
     FM250600 00000KT 1/4SM FZFG VV002
     FM251300 30006KT P6SM SKC=

USA.gov is the U.S. government's official web portal to all federal, state and local government web resources and services.